createdAt,value
2023-03-07T00:00:16.541Z,99041.63
2023-03-07T00:02:57.148Z,99039.75
2023-03-07T00:05:29.498Z,99032.91
2023-03-07T00:08:00.931Z,99029.16
2023-03-07T00:10:30.668Z,99032.66
2023-03-07T00:13:00.891Z,99028.16
2023-03-07T00:15:31.300Z,99015.81
2023-03-07T00:18:03.624Z,99024.72
2023-03-07T00:20:33.944Z,99019.56
2023-03-07T00:23:02.190Z,99024.09
2023-03-07T00:25:31.829Z,99020.22
2023-03-07T00:28:05.537Z,99011.34
2023-03-07T00:30:34.103Z,99018.75
2023-03-07T00:33:07.200Z,99001.25
2023-03-07T00:35:38.199Z,99015.44
2023-03-07T00:38:06.660Z,98999.38
2023-03-07T00:40:42.257Z,99007.00
2023-03-07T00:43:15.126Z,99004.28
2023-03-07T00:45:44.091Z,99001.66
2023-03-07T00:48:18.611Z,98995.25
2023-03-07T00:50:51.053Z,98991.31
2023-03-07T00:53:20.371Z,98979.38
2023-03-07T00:55:56.947Z,98984.53
2023-03-07T00:58:32.363Z,98991.13
2023-03-07T01:01:02.212Z,98955.25
2023-03-07T01:03:33.316Z,98981.00
2023-03-07T01:09:12.254Z,98977.91
2023-03-07T01:11:40.267Z,98971.53
2023-03-07T01:14:12.685Z,98971.53
2023-03-07T01:16:41.277Z,98963.69
2023-03-07T01:19:12.392Z,98976.28
2023-03-07T01:21:41.895Z,98970.28
2023-03-07T01:24:14.023Z,98969.47
2023-03-07T01:26:43.126Z,98933.56
2023-03-07T01:29:17.201Z,98964.50
2023-03-07T01:31:47.866Z,98950.69
2023-03-07T01:34:19.738Z,98956.69
2023-03-07T01:36:47.941Z,98965.97
2023-03-07T01:39:17.939Z,98936.47
2023-03-07T01:41:49.664Z,98951.09
2023-03-07T01:44:21.857Z,98951.94
2023-03-07T01:46:56.675Z,98946.56
2023-03-07T01:49:35.115Z,98937.91
2023-03-07T01:52:08.692Z,98933.97
2023-03-07T01:54:41.235Z,98934.63
2023-03-07T01:57:12.068Z,98934.81
2023-03-07T01:59:49.719Z,98926.13
2023-03-07T02:02:22.694Z,98928.63
2023-03-07T02:04:57.904Z,98917.91
2023-03-07T02:07:33.961Z,98928.19
2023-03-07T02:10:07.808Z,98920.19
2023-03-07T02:12:36.371Z,98920.38
2023-03-07T02:15:11.319Z,98909.84
2023-03-07T02:17:48.985Z,98902.44
2023-03-07T02:20:33.341Z,98894.56
2023-03-07T02:23:05.716Z,98895.63
2023-03-07T02:25:44.444Z,98900.16
2023-03-07T02:28:22.412Z,98889.84
2023-03-07T02:31:00.220Z,98886.75
2023-03-07T02:33:28.835Z,98885.09
2023-03-07T02:36:01.450Z,98875.56
2023-03-07T02:38:39.270Z,98874.75
2023-03-07T02:41:11.544Z,98881.75
2023-03-07T02:43:42.073Z,98877.66
2023-03-07T02:46:12.318Z,98869.16
2023-03-07T02:48:46.185Z,98872.47
2023-03-07T02:51:16.776Z,98868.09
2023-03-07T02:53:49.163Z,98859.38
2023-03-07T02:56:17.994Z,98874.50
2023-03-07T02:58:50.057Z,98854.69
2023-03-07T03:01:19.669Z,98851.22
2023-03-07T03:03:47.706Z,98858.59
2023-03-07T03:06:16.036Z,98855.69
2023-03-07T03:08:44.042Z,98852.00
2023-03-07T03:11:12.834Z,98845.41
2023-03-07T03:13:44.808Z,98854.22
2023-03-07T03:16:15.296Z,98858.09
2023-03-07T03:18:47.023Z,98859.81
2023-03-07T03:21:16.484Z,98858.13
2023-03-07T03:23:44.716Z,98828.81
2023-03-07T03:26:13.306Z,98849.88
2023-03-07T03:28:43.620Z,98847.06
2023-03-07T03:31:15.831Z,98838.16
2023-03-07T03:33:45.516Z,98831.31
2023-03-07T03:36:17.664Z,98837.75
2023-03-07T03:38:53.098Z,98828.19
2023-03-07T03:41:21.640Z,98817.53
2023-03-07T03:43:53.393Z,98828.84
2023-03-07T03:46:25.796Z,98812.94
2023-03-07T03:48:57.110Z,98829.69
2023-03-07T03:51:26.109Z,98807.25
2023-03-07T03:53:57.960Z,98825.28
2023-03-07T03:56:27.869Z,98820.31
2023-03-07T03:58:58.940Z,98819.75
2023-03-07T04:01:30.333Z,98823.41
2023-03-07T04:04:00.325Z,98815.16
2023-03-07T04:06:40.883Z,98797.41
2023-03-07T04:09:10.034Z,98802.50
2023-03-07T04:11:38.069Z,98793.06
2023-03-07T04:14:11.314Z,98773.69
2023-03-07T04:16:41.789Z,98802.06
2023-03-07T04:19:12.955Z,98789.09
2023-03-07T04:21:42.510Z,98784.97
2023-03-07T04:24:13.215Z,98766.22
2023-03-07T04:26:44.591Z,98786.16
2023-03-07T04:29:14.667Z,98786.81
2023-03-07T04:31:44.507Z,98777.47
2023-03-07T04:34:12.747Z,98735.28
2023-03-07T04:36:41.667Z,98751.34
2023-03-07T04:39:10.765Z,98775.25
2023-03-07T04:41:40.243Z,98749.75
2023-03-07T04:44:12.500Z,98775.75
2023-03-07T04:46:45.361Z,98754.19
2023-03-07T04:49:13.684Z,98759.34
2023-03-07T04:51:44.206Z,98770.41
2023-03-07T04:54:12.365Z,98775.19
2023-03-07T04:56:41.256Z,98768.47
2023-03-07T04:59:09.390Z,98765.16
2023-03-07T05:01:40.708Z,98757.50
2023-03-07T05:04:14.112Z,98760.88
2023-03-07T05:06:44.000Z,98760.47
2023-03-07T05:09:13.080Z,98752.84
2023-03-07T05:11:42.584Z,98756.13
2023-03-07T05:14:16.805Z,98739.00
2023-03-07T05:16:49.449Z,98721.69
2023-03-07T05:19:18.892Z,98727.22
2023-03-07T05:21:50.249Z,98738.31
2023-03-07T05:24:21.759Z,98740.56
2023-03-07T05:26:54.497Z,98731.72
2023-03-07T05:29:23.049Z,98742.22
2023-03-07T05:32:00.294Z,98736.31
2023-03-07T05:34:32.469Z,98734.16
2023-03-07T05:37:01.781Z,98729.97
2023-03-07T05:39:32.285Z,98734.94
2023-03-07T05:42:00.117Z,98740.91
2023-03-07T05:44:34.163Z,98741.56
2023-03-07T05:47:04.293Z,98734.31
2023-03-07T05:49:34.509Z,98730.53
2023-03-07T05:52:04.866Z,98721.09
2023-03-07T05:54:40.369Z,98718.97
2023-03-07T05:57:17.923Z,98720.00
2023-03-07T05:59:47.956Z,98730.94
2023-03-07T06:02:17.451Z,98720.88
2023-03-07T06:05:14.262Z,98714.19
2023-03-07T06:07:44.312Z,98719.44
2023-03-07T06:10:17.926Z,98712.50
2023-03-07T06:12:47.225Z,98723.16
2023-03-07T06:15:24.454Z,98720.13
2023-03-07T06:17:53.637Z,98711.31
2023-03-07T06:20:26.696Z,98722.75
2023-03-07T06:22:54.554Z,98692.53
2023-03-07T06:25:22.917Z,98720.28
2023-03-07T06:27:53.125Z,98723.25
2023-03-07T06:30:26.339Z,98727.03
2023-03-07T06:32:55.300Z,98716.34
2023-03-07T06:35:35.836Z,98729.34
2023-03-07T06:38:06.478Z,98720.81
2023-03-07T06:40:35.414Z,98734.72
2023-03-07T06:43:03.957Z,98734.19
2023-03-07T06:45:35.139Z,98738.03
2023-03-07T06:48:06.749Z,98715.84
2023-03-07T06:50:39.745Z,98723.50
2023-03-07T06:53:11.750Z,98696.38
2023-03-07T06:55:41.868Z,98730.38
2023-03-07T06:58:13.473Z,98729.44
2023-03-07T07:00:41.758Z,98725.22
2023-03-07T07:03:13.842Z,98724.56
2023-03-07T07:05:51.361Z,98724.81
2023-03-07T07:08:20.046Z,98724.72
2023-03-07T07:10:51.061Z,98726.44
2023-03-07T07:13:22.470Z,98718.47
2023-03-07T07:15:51.035Z,98720.88
2023-03-07T07:18:20.465Z,98729.56
2023-03-07T07:20:58.268Z,98722.47
2023-03-07T07:23:30.221Z,98728.22
2023-03-07T07:26:00.678Z,98717.09
2023-03-07T07:28:30.168Z,98721.88
2023-03-07T07:31:05.709Z,98687.31
2023-03-07T07:33:50.031Z,98722.31
2023-03-07T07:36:24.994Z,98714.94
2023-03-07T07:38:58.196Z,98711.97
2023-03-07T07:41:27.502Z,98694.31
2023-03-07T07:43:59.072Z,98706.59
2023-03-07T07:46:31.043Z,98688.88
2023-03-07T07:49:01.498Z,98719.59
2023-03-07T07:54:26.929Z,98678.34
2023-03-07T07:57:04.201Z,98712.59
2023-03-07T07:59:35.525Z,98702.28
2023-03-07T08:02:03.834Z,98718.19
2023-03-07T08:04:38.773Z,98714.22
2023-03-07T08:07:16.210Z,98699.97
2023-03-07T08:09:45.361Z,98700.59
2023-03-07T08:12:17.345Z,98701.44
2023-03-07T08:14:47.357Z,98687.47
2023-03-07T08:17:16.849Z,98680.81
2023-03-07T08:19:46.724Z,98688.22
2023-03-07T08:22:19.848Z,98699.44
2023-03-07T08:24:51.451Z,98666.94
2023-03-07T08:27:21.164Z,98695.00
2023-03-07T08:29:52.004Z,98684.84
2023-03-07T08:32:24.945Z,98677.25
2023-03-07T08:35:02.056Z,98668.91
2023-03-07T08:37:32.744Z,98678.31
2023-03-07T08:40:03.279Z,98680.84
2023-03-07T08:42:34.842Z,98671.13
2023-03-07T08:45:04.625Z,98663.53
2023-03-07T08:47:32.879Z,98660.63
2023-03-07T08:50:01.064Z,98668.22
2023-03-07T08:52:34.272Z,98663.25
2023-03-07T08:55:04.270Z,98643.38
2023-03-07T08:57:35.674Z,98657.50
2023-03-07T09:00:15.909Z,98657.75
2023-03-07T09:02:43.842Z,98646.59
2023-03-07T09:05:15.898Z,98656.94
2023-03-07T09:07:45.540Z,98649.66
2023-03-07T09:10:17.226Z,98628.69
2023-03-07T09:12:45.729Z,98627.78
2023-03-07T09:15:21.562Z,98662.19
2023-03-07T09:17:50.682Z,98647.28
2023-03-07T09:20:20.939Z,98657.25
2023-03-07T09:22:55.302Z,98651.44
2023-03-07T09:25:24.709Z,98583.75
2023-03-07T09:27:55.784Z,98653.19
2023-03-07T09:30:25.470Z,98651.91
2023-03-07T09:32:56.211Z,98595.34
2023-03-07T09:35:26.340Z,98653.00
2023-03-07T09:38:04.766Z,98649.19
2023-03-07T09:40:35.188Z,98655.63
2023-03-07T09:43:16.645Z,98643.56
2023-03-07T09:46:01.020Z,98651.81
2023-03-07T09:48:58.877Z,98642.16
2023-03-07T09:51:32.720Z,98643.72
2023-03-07T09:54:09.817Z,98647.41
2023-03-07T09:56:43.383Z,98627.59
2023-03-07T09:59:24.063Z,98639.84
2023-03-07T10:01:59.590Z,98652.22
2023-03-07T10:04:35.798Z,98630.66
2023-03-07T10:07:07.189Z,98632.91
2023-03-07T10:09:37.535Z,98597.19
2023-03-07T10:12:40.770Z,98635.03
2023-03-07T10:15:20.192Z,98628.41
2023-03-07T10:18:16.112Z,98619.28
2023-03-07T10:20:51.553Z,98634.97
2023-03-07T10:23:46.928Z,98638.25
2023-03-07T10:26:33.685Z,98625.63
2023-03-07T10:29:22.714Z,98614.59
2023-03-07T10:32:07.339Z,98625.44
2023-03-07T10:34:46.501Z,98621.00
2023-03-07T10:37:19.388Z,98618.03
2023-03-07T10:39:54.298Z,98614.56
2023-03-07T10:42:32.146Z,98590.19
2023-03-07T10:45:00.370Z,98614.81
2023-03-07T10:47:29.847Z,98593.75
2023-03-07T10:50:12.979Z,98617.34
2023-03-07T10:52:51.667Z,98608.19
2023-03-07T10:55:46.856Z,98613.84
2023-03-07T10:58:36.641Z,98606.53
2023-03-07T11:01:31.067Z,98609.88
2023-03-07T11:04:05.237Z,98600.72
2023-03-07T11:06:40.659Z,98594.25
2023-03-07T11:09:19.924Z,98589.25
2023-03-07T11:11:59.110Z,98584.91
2023-03-07T11:14:33.491Z,98587.75
2023-03-07T11:17:06.766Z,98581.84
2023-03-07T11:19:40.162Z,98591.72
2023-03-07T11:22:28.799Z,98585.31
2023-03-07T11:25:00.549Z,98583.09
2023-03-07T11:27:36.070Z,98585.06
2023-03-07T11:30:24.821Z,98564.53
2023-03-07T11:33:11.673Z,98571.97
2023-03-07T11:36:01.134Z,98551.47
2023-03-07T11:38:41.282Z,98554.69
2023-03-07T11:41:17.600Z,98551.72
2023-03-07T11:43:58.901Z,98531.84
2023-03-07T11:46:43.591Z,98550.66
2023-03-07T11:49:39.368Z,98549.03
2023-03-07T11:52:28.240Z,98542.78
2023-03-07T11:55:06.936Z,98549.56
2023-03-07T11:57:53.062Z,98536.44
2023-03-07T12:00:36.307Z,98544.44
2023-03-07T12:03:38.645Z,98525.13
2023-03-07T12:06:35.483Z,98526.63
2023-03-07T12:09:22.043Z,98526.66
2023-03-07T12:12:13.521Z,98530.94
2023-03-07T12:14:50.636Z,98532.13
2023-03-07T12:17:32.680Z,98529.91
2023-03-07T12:20:29.189Z,98521.31
2023-03-07T12:23:11.416Z,98519.16
2023-03-07T12:25:43.473Z,98519.97
2023-03-07T12:28:31.125Z,98516.66
2023-03-07T12:31:11.421Z,98516.59
2023-03-07T12:33:56.149Z,98510.78
2023-03-07T12:36:35.652Z,98509.09
2023-03-07T12:39:18.017Z,98493.97
2023-03-07T12:42:22.935Z,98503.59
2023-03-07T12:45:00.058Z,98505.25
2023-03-07T12:47:39.335Z,98505.94
2023-03-07T12:50:22.625Z,98508.09
2023-03-07T12:53:02.324Z,98483.44
2023-03-07T12:55:41.435Z,98484.59
2023-03-07T12:58:20.042Z,98489.72
2023-03-07T13:00:56.402Z,98468.59
2023-03-07T13:03:35.579Z,98471.72
2023-03-07T13:06:05.335Z,98489.34
2023-03-07T13:08:39.265Z,98481.22
2023-03-07T13:11:15.359Z,98473.78
2023-03-07T13:13:55.459Z,98472.19
2023-03-07T13:16:41.694Z,98471.09
2023-03-07T13:20:06.289Z,98463.94
2023-03-07T13:22:59.115Z,98461.81
2023-03-07T13:25:57.345Z,98457.91
2023-03-07T13:28:41.892Z,98471.81
2023-03-07T13:31:35.144Z,98465.69
2023-03-07T13:34:41.544Z,98468.28
2023-03-07T13:37:52.464Z,98460.03
2023-03-07T13:40:56.574Z,98461.97
2023-03-07T13:44:00.336Z,98460.34
2023-03-07T13:46:45.730Z,98467.63
2023-03-07T13:49:46.748Z,98459.66
2023-03-07T13:52:38.250Z,98469.38
2023-03-07T13:55:25.479Z,98470.91
2023-03-07T13:58:02.267Z,98481.47
2023-03-07T14:00:44.271Z,98467.72
2023-03-07T14:03:29.569Z,98470.66
2023-03-07T14:08:47.768Z,98469.97
2023-03-07T14:11:24.595Z,98457.53
2023-03-07T14:14:26.499Z,98437.00
2023-03-07T14:17:09.026Z,98466.84
2023-03-07T14:19:50.512Z,98473.38
2023-03-07T14:22:31.613Z,98473.31
2023-03-07T14:25:21.492Z,98449.00
2023-03-07T14:27:58.861Z,98467.16
2023-03-07T14:30:32.514Z,98486.84
2023-03-07T14:33:03.080Z,98446.56
2023-03-07T14:35:52.066Z,98487.84
2023-03-07T14:38:23.746Z,98490.75
2023-03-07T14:41:34.332Z,98485.00
2023-03-07T14:44:17.132Z,98473.25
2023-03-07T14:47:01.498Z,98469.16
2023-03-07T14:49:39.336Z,98486.50
2023-03-07T14:52:30.857Z,98487.16
2023-03-07T14:55:02.550Z,98468.47
2023-03-07T14:57:37.805Z,98494.81
2023-03-07T15:00:13.327Z,98491.81
2023-03-07T15:02:53.366Z,98500.16
2023-03-07T15:05:25.199Z,98503.06
2023-03-07T15:07:54.963Z,98493.06
2023-03-07T15:10:31.886Z,98499.94
2023-03-07T15:13:01.645Z,98498.16
2023-03-07T15:15:36.741Z,98493.75
2023-03-07T15:18:14.882Z,98488.16
2023-03-07T15:20:46.188Z,98500.75
2023-03-07T15:23:24.333Z,98467.22
2023-03-07T15:25:54.529Z,98473.78
2023-03-07T15:28:28.424Z,98477.91
2023-03-07T15:30:57.257Z,98478.78
2023-03-07T15:33:31.489Z,98481.69
2023-03-07T15:36:27.334Z,98494.22
2023-03-07T15:39:24.588Z,98475.00
2023-03-07T15:42:03.764Z,98478.84
2023-03-07T15:44:34.279Z,98475.84
2023-03-07T15:47:15.115Z,98472.03
2023-03-07T15:49:48.098Z,98476.03
2023-03-07T15:52:26.672Z,98484.28
2023-03-07T15:54:59.622Z,98482.00
2023-03-07T15:57:32.309Z,98472.94
2023-03-07T16:00:08.002Z,98472.06
2023-03-07T16:02:54.916Z,98461.50
2023-03-07T16:05:37.158Z,98481.75
2023-03-07T16:08:15.245Z,98487.56
2023-03-07T16:10:50.627Z,98479.84
2023-03-07T16:13:22.061Z,98476.50
2023-03-07T16:16:06.903Z,98497.53
2023-03-07T16:18:39.702Z,98477.81
2023-03-07T16:21:14.610Z,98482.16
2023-03-07T16:23:45.381Z,98492.81
2023-03-07T16:26:16.293Z,98487.41
2023-03-07T16:28:46.427Z,98486.84
2023-03-07T16:31:21.084Z,98463.63
2023-03-07T16:33:50.584Z,98478.09
2023-03-07T16:36:21.130Z,98483.13
2023-03-07T16:38:50.722Z,98485.81
2023-03-07T16:41:20.618Z,98478.16
2023-03-07T16:43:54.528Z,98480.66
2023-03-07T16:46:23.965Z,98504.31
2023-03-07T16:48:52.199Z,98490.34
2023-03-07T16:51:26.294Z,98479.38
2023-03-07T16:53:56.744Z,98485.59
2023-03-07T16:56:29.744Z,98494.41
2023-03-07T16:58:58.898Z,98498.59
2023-03-07T17:01:27.355Z,98492.94
2023-03-07T17:03:57.365Z,98503.19
2023-03-07T17:06:38.520Z,98512.78
2023-03-07T17:09:10.380Z,98493.34
2023-03-07T17:11:48.662Z,98509.38
2023-03-07T17:14:19.642Z,98500.63
2023-03-07T17:16:50.066Z,98484.81
2023-03-07T17:19:30.423Z,98520.19
2023-03-07T17:22:06.967Z,98506.03
2023-03-07T17:24:36.156Z,98515.81
2023-03-07T17:27:09.086Z,98501.84
2023-03-07T17:29:43.373Z,98519.84
2023-03-07T17:32:12.713Z,98485.03
2023-03-07T17:34:41.214Z,98517.72
2023-03-07T17:37:14.990Z,98524.91
2023-03-07T17:39:43.695Z,98526.78
2023-03-07T17:42:15.848Z,98497.72
2023-03-07T17:44:46.316Z,98532.78
2023-03-07T17:47:18.771Z,98544.97
2023-03-07T17:49:51.162Z,98535.81
2023-03-07T17:52:27.979Z,98523.44
2023-03-07T17:54:57.156Z,98518.66
2023-03-07T17:57:28.447Z,98502.03
2023-03-07T17:59:57.442Z,98506.47
2023-03-07T18:02:29.733Z,98534.22
2023-03-07T18:04:58.172Z,98554.44
2023-03-07T18:07:28.408Z,98538.88
2023-03-07T18:10:07.478Z,98519.44
2023-03-07T18:12:39.129Z,98543.09
2023-03-07T18:15:12.108Z,98533.47
2023-03-07T18:17:48.262Z,98539.00
2023-03-07T18:20:18.936Z,98536.72
2023-03-07T18:22:48.864Z,98548.63
2023-03-07T18:25:24.493Z,98511.84
2023-03-07T18:27:55.495Z,98533.25
2023-03-07T18:30:27.426Z,98541.59
2023-03-07T18:32:56.772Z,98550.09
2023-03-07T18:35:25.445Z,98538.66
2023-03-07T18:37:55.952Z,98544.63
2023-03-07T18:40:25.959Z,98526.38
2023-03-07T18:43:01.903Z,98511.72
2023-03-07T18:45:36.710Z,98552.25
2023-03-07T18:48:05.008Z,98535.63
2023-03-07T18:50:33.601Z,98521.19
2023-03-07T18:53:15.650Z,98548.81
2023-03-07T18:55:44.330Z,98558.91
2023-03-07T18:58:16.377Z,98559.72
2023-03-07T19:00:46.748Z,98547.91
2023-03-07T19:03:16.356Z,98566.09
2023-03-07T19:05:48.738Z,98564.59
2023-03-07T19:08:20.294Z,98545.47
2023-03-07T19:10:50.720Z,98554.88
2023-03-07T19:13:18.906Z,98526.75
2023-03-07T19:15:49.561Z,98564.78
2023-03-07T19:18:25.163Z,98548.22
2023-03-07T19:20:56.356Z,98576.34
2023-03-07T19:23:33.658Z,98537.31
2023-03-07T19:26:08.094Z,98494.34
2023-03-07T19:28:39.775Z,98556.03
2023-03-07T19:31:10.309Z,98557.66
2023-03-07T19:33:41.017Z,98577.22
2023-03-07T19:36:11.693Z,98587.03
2023-03-07T19:38:42.394Z,98576.63
2023-03-07T19:41:13.637Z,98576.63
2023-03-07T19:43:45.611Z,98585.16
2023-03-07T19:46:20.182Z,98583.50
2023-03-07T19:48:54.054Z,98586.25
2023-03-07T19:51:23.939Z,98580.69
2023-03-07T19:53:57.752Z,98592.78
2023-03-07T19:56:28.565Z,98575.72
2023-03-07T19:59:00.824Z,98593.16
2023-03-07T20:01:31.018Z,98599.31
2023-03-07T20:04:00.653Z,98605.88
2023-03-07T20:06:33.180Z,98610.31
2023-03-07T20:09:06.283Z,98572.81
2023-03-07T20:11:36.856Z,98620.63
2023-03-07T20:14:09.006Z,98613.28
2023-03-07T20:16:40.277Z,98598.31
2023-03-07T20:19:13.119Z,98647.88
2023-03-07T20:21:46.664Z,98638.06
2023-03-07T20:24:16.348Z,98666.66
2023-03-07T20:26:47.626Z,98624.81
2023-03-07T20:29:16.425Z,98681.63
2023-03-07T20:31:45.751Z,98691.59
2023-03-07T20:34:15.018Z,98650.41
2023-03-07T20:36:44.632Z,98670.84
2023-03-07T20:39:15.350Z,98607.69
2023-03-07T20:41:46.151Z,98699.47
2023-03-07T20:44:17.697Z,98699.84
2023-03-07T20:46:46.570Z,98702.31
2023-03-07T20:49:17.353Z,98706.75
2023-03-07T20:51:50.258Z,98684.72
2023-03-07T20:54:21.453Z,98709.66
2023-03-07T20:56:54.909Z,98710.22
2023-03-07T20:59:23.634Z,98721.25
2023-03-07T21:01:55.465Z,98713.84
2023-03-07T21:04:24.116Z,98697.03
2023-03-07T21:06:53.694Z,98713.72
2023-03-07T21:09:22.115Z,98715.88
2023-03-07T21:11:52.770Z,98734.63
2023-03-07T21:14:26.127Z,98724.56
2023-03-07T21:16:54.499Z,98693.44
2023-03-07T21:19:29.765Z,98748.91
2023-03-07T21:22:00.282Z,98738.44
2023-03-07T21:24:29.886Z,98720.13
2023-03-07T21:27:05.535Z,98761.06
2023-03-07T21:29:39.003Z,98760.75
2023-03-07T21:32:10.231Z,98772.75
2023-03-07T21:34:42.320Z,98765.97
2023-03-07T21:37:13.661Z,98782.38
2023-03-07T21:39:41.855Z,98753.34
2023-03-07T21:42:20.541Z,98771.84
2023-03-07T21:44:49.138Z,98767.13
2023-03-07T21:47:20.040Z,98777.31
2023-03-07T21:49:49.289Z,98770.84
2023-03-07T21:52:17.156Z,98775.72
2023-03-07T21:54:45.968Z,98784.13
2023-03-07T21:57:16.248Z,98786.03
2023-03-07T21:59:44.139Z,98786.41
2023-03-07T22:02:13.033Z,98774.63
2023-03-07T22:04:41.380Z,98802.50
2023-03-07T22:07:09.921Z,98812.66
2023-03-07T22:09:39.752Z,98806.00
2023-03-07T22:12:09.190Z,98823.75
2023-03-07T22:14:43.797Z,98824.38
2023-03-07T22:17:13.230Z,98819.13
2023-03-07T22:19:46.460Z,98819.75
2023-03-07T22:22:21.291Z,98785.66
2023-03-07T22:24:53.210Z,98816.16
2023-03-07T22:27:21.526Z,98794.97
2023-03-07T22:29:51.846Z,98768.44
2023-03-07T22:32:21.492Z,98812.13
2023-03-07T22:35:12.253Z,98810.78
2023-03-07T22:37:42.978Z,98806.91
2023-03-07T22:40:13.820Z,98787.81
2023-03-07T22:42:45.478Z,98803.53
2023-03-07T22:45:19.841Z,98837.66
2023-03-07T22:47:49.476Z,98819.47
2023-03-07T22:50:20.423Z,98819.34
2023-03-07T22:52:49.235Z,98826.38
2023-03-07T22:55:18.707Z,98843.16
2023-03-07T22:57:49.931Z,98845.69
2023-03-07T23:00:22.654Z,98835.53
2023-03-07T23:02:52.009Z,98844.66
2023-03-07T23:05:20.092Z,98826.34
2023-03-07T23:07:49.371Z,98845.13
2023-03-07T23:10:18.913Z,98844.28
2023-03-07T23:12:53.526Z,98843.00
2023-03-07T23:15:25.427Z,98822.88
2023-03-07T23:18:07.666Z,98848.28
2023-03-07T23:20:39.141Z,98847.88
2023-03-07T23:23:08.730Z,98844.19
2023-03-07T23:25:43.040Z,98846.09
2023-03-07T23:28:14.538Z,98844.16
2023-03-07T23:30:45.317Z,98845.84
2023-03-07T23:33:16.144Z,98847.03
2023-03-07T23:35:44.595Z,98851.34
2023-03-07T23:38:15.393Z,98837.34
2023-03-07T23:40:47.365Z,98819.34
2023-03-07T23:43:18.171Z,98835.41
2023-03-07T23:45:47.590Z,98832.16
2023-03-07T23:48:16.029Z,98837.38
2023-03-07T23:50:45.138Z,98838.09
2023-03-07T23:53:16.647Z,98837.00
2023-03-07T23:55:46.052Z,98822.41
2023-03-07T23:58:15.425Z,98821.63
